PWSweather.com
Personal Weather Stations
Station Observations

PoschiavoCH

Lat: 46.31962499999999, Lon: 10.066551000000004

Elevation: 3517

Station Type: WH 1080

http://www.meteoposchiavo.com

High Low Average
Temperature 71.0°F21.7°C 54.0°F12.2°C 61.2°F16.2°C
Dew Point 65.0°F18.3°C 46.8°F8.2°C 56.4°F13.6°C
Winds 3.5 mph 5.6 kmh Calm Calm Calm ESECalm ESE
Wind Gusts 5.8 mph9.3 kmh -- 1.0 mph1.6 kmh
Humidity 99% 45% 86%
Pressure 26.61 in901.1 mb 26.38 in893.3 mb -
Precipitation 0.68 in17.3 mm - -
Hour Temp Dew Point Humidity Winds Wind Gusts Pressure Precip Precip Rate Daily Precip Total
12:35 AM 57.0°F13.9°C 53.8°F12.1°C 89% Calm Calm -- 26.39 in893.7 mb - 0.00 in0.0 mm 0.00 in0.0 mm
12:45 AM 57.0°F13.9°C 53.5°F11.9°C 88% Calm Calm -- 26.39 in893.7 mb - 0.00 in0.0 mm 0.00 in0.0 mm
02:00 AM 56.0°F13.3°C 55.7°F13.2°C 99% Calm Calm -- 26.38 in893.3 mb - 0.10 in2.5 mm 0.16 in4.1 mm
02:10 AM 56.0°F13.3°C 55.7°F13.2°C 99% Calm Calm -- 26.39 in893.7 mb - 0.10 in2.5 mm 0.16 in4.1 mm
02:15 AM 56.0°F13.3°C 55.7°F13.2°C 99% Calm Calm -- 26.39 in893.7 mb - 0.04 in1.0 mm 0.16 in4.1 mm
02:20 AM 56.0°F13.3°C 55.7°F13.2°C 99% Calm Calm -- 26.38 in893.3 mb - 0.04 in1.0 mm 0.16 in4.1 mm
02:25 AM 56.0°F13.3°C 55.7°F13.2°C 99% Calm Calm -- 26.38 in893.3 mb - 0.01 in0.3 mm 0.16 in4.1 mm
02:30 AM 56.0°F13.3°C 55.7°F13.2°C 99% Calm Calm -- 26.38 in893.3 mb - 0.01 in0.3 mm 0.16 in4.1 mm
02:35 AM 56.0°F13.3°C 55.7°F13.2°C 99% Calm Calm -- 26.39 in893.7 mb - 0.01 in0.3 mm 0.16 in4.1 mm
02:40 AM 56.0°F13.3°C 55.7°F13.2°C 99% Calm Calm -- 26.39 in893.7 mb - 0.00 in0.0 mm 0.16 in4.1 mm
02:45 AM 56.0°F13.3°C 55.7°F13.2°C 99% Calm Calm -- 26.39 in893.7 mb - 0.00 in0.0 mm 0.16 in4.1 mm
02:50 AM 56.0°F13.3°C 55.7°F13.2°C 99% Calm Calm -- 26.39 in893.7 mb - 0.00 in0.0 mm 0.16 in4.1 mm
02:55 AM 56.0°F13.3°C 55.7°F13.2°C 99% Calm Calm -- 26.40 in894.0 mb - 0.00 in0.0 mm 0.16 in4.1 mm
03:00 AM 56.0°F13.3°C 55.7°F13.2°C 99% Calm Calm -- 26.40 in894.0 mb - 0.00 in0.0 mm 0.16 in4.1 mm
03:10 AM 56.0°F13.3°C 55.7°F13.2°C 99% Calm Calm -- 26.41 in894.3 mb - 0.00 in0.0 mm 0.16 in4.1 mm
03:15 AM 56.0°F13.3°C 55.7°F13.2°C 99% Calm Calm -- 26.41 in894.3 mb - 0.00 in0.0 mm 0.16 in4.1 mm
03:20 AM 56.0°F13.3°C 55.7°F13.2°C 99% Calm Calm -- 26.40 in894.0 mb - 0.00 in0.0 mm 0.16 in4.1 mm
03:25 AM 56.0°F13.3°C 55.7°F13.2°C 99% Calm Calm -- 26.41 in894.3 mb - 0.00 in0.0 mm 0.16 in4.1 mm
03:30 AM 56.0°F13.3°C 55.7°F13.2°C 99% Calm Calm -- 26.41 in894.3 mb - 0.00 in0.0 mm 0.16 in4.1 mm
03:35 AM 56.0°F13.3°C 55.7°F13.2°C 99% Calm Calm -- 26.41 in894.3 mb - 0.00 in0.0 mm 0.16 in4.1 mm
03:40 AM 56.0°F13.3°C 55.7°F13.2°C 99% Calm Calm -- 26.41 in894.3 mb - 0.00 in0.0 mm 0.16 in4.1 mm
03:45 AM 56.0°F13.3°C 55.7°F13.2°C 99% Calm Calm -- 26.42 in894.7 mb - 0.00 in0.0 mm 0.16 in4.1 mm
03:50 AM 56.0°F13.3°C 55.7°F13.2°C 99% Calm Calm -- 26.42 in894.7 mb - 0.00 in0.0 mm 0.16 in4.1 mm
03:55 AM 56.0°F13.3°C 55.7°F13.2°C 99% Calm Calm -- 26.43 in895.0 mb - 0.00 in0.0 mm 0.16 in4.1 mm
04:00 AM 56.0°F13.3°C 55.7°F13.2°C 99% Calm Calm -- 26.42 in894.7 mb - 0.00 in0.0 mm 0.16 in4.1 mm
04:10 AM 56.0°F13.3°C 55.7°F13.2°C 99% Calm Calm -- 26.43 in895.0 mb - 0.00 in0.0 mm 0.16 in4.1 mm
04:15 AM 56.0°F13.3°C 55.7°F13.2°C 99% Calm Calm -- 26.42 in894.7 mb - 0.00 in0.0 mm 0.16 in4.1 mm
04:20 AM 56.0°F13.3°C 55.7°F13.2°C 99% 1.2 mph ENE1.9 kmh ENE 1.2 mph1.9 kmh 26.43 in895.0 mb - 0.00 in0.0 mm 0.16 in4.1 mm
04:25 AM 56.0°F13.3°C 55.7°F13.2°C 99% Calm Calm -- 26.43 in895.0 mb - 0.00 in0.0 mm 0.16 in4.1 mm
04:30 AM 56.0°F13.3°C 55.7°F13.2°C 99% Calm Calm 1.2 mph1.9 kmh 26.43 in895.0 mb - 0.00 in0.0 mm 0.16 in4.1 mm
04:35 AM 56.0°F13.3°C 55.7°F13.2°C 99% Calm Calm -- 26.43 in895.0 mb - 0.00 in0.0 mm 0.16 in4.1 mm
04:40 AM 56.0°F13.3°C 55.7°F13.2°C 99% Calm Calm -- 26.43 in895.0 mb - 0.00 in0.0 mm 0.16 in4.1 mm
04:45 AM 56.0°F13.3°C 55.7°F13.2°C 99% Calm Calm -- 26.44 in895.4 mb - 0.00 in0.0 mm 0.16 in4.1 mm
04:50 AM 56.0°F13.3°C 55.7°F13.2°C 99% Calm Calm -- 26.44 in895.4 mb - 0.00 in0.0 mm 0.16 in4.1 mm
04:55 AM 56.0°F13.3°C 55.7°F13.2°C 99% Calm Calm -- 26.44 in895.4 mb - 0.00 in0.0 mm 0.16 in4.1 mm
05:00 AM 56.0°F13.3°C 55.7°F13.2°C 99% Calm Calm -- 26.44 in895.4 mb - 0.00 in0.0 mm 0.16 in4.1 mm
05:10 AM 57.0°F13.9°C 54.4°F12.4°C 91% Calm Calm -- 26.44 in895.4 mb - 0.00 in0.0 mm 0.16 in4.1 mm
05:15 AM 56.0°F13.3°C 55.7°F13.2°C 99% Calm Calm -- 26.44 in895.4 mb - 0.00 in0.0 mm 0.16 in4.1 mm
05:20 AM 56.0°F13.3°C 55.7°F13.2°C 99% Calm Calm -- 26.44 in895.4 mb - 0.00 in0.0 mm 0.16 in4.1 mm
05:25 AM 56.0°F13.3°C 55.7°F13.2°C 99% Calm Calm -- 26.44 in895.4 mb - 0.00 in0.0 mm 0.16 in4.1 mm
05:30 AM 55.0°F12.8°C 54.7°F12.6°C 99% Calm Calm -- 26.43 in895.0 mb - 0.00 in0.0 mm 0.16 in4.1 mm
05:35 AM 55.0°F12.8°C 54.7°F12.6°C 99% Calm Calm -- 26.44 in895.4 mb - 0.00 in0.0 mm 0.16 in4.1 mm
05:40 AM 55.0°F12.8°C 54.7°F12.6°C 99% Calm Calm -- 26.44 in895.4 mb - 0.00 in0.0 mm 0.16 in4.1 mm
05:45 AM 55.0°F12.8°C 54.7°F12.6°C 99% Calm Calm -- 26.44 in895.4 mb - 0.00 in0.0 mm 0.16 in4.1 mm
05:50 AM 56.0°F13.3°C 55.7°F13.2°C 99% Calm Calm -- 26.41 in894.3 mb - 0.00 in0.0 mm 0.16 in4.1 mm
05:55 AM 56.0°F13.3°C 55.7°F13.2°C 99% Calm Calm -- 26.43 in895.0 mb - 0.00 in0.0 mm 0.16 in4.1 mm
06:00 AM 56.0°F13.3°C 55.7°F13.2°C 99% Calm Calm -- 26.43 in895.0 mb - 0.00 in0.0 mm 0.16 in4.1 mm
06:10 AM 56.0°F13.3°C 55.7°F13.2°C 99% Calm Calm -- 26.43 in895.0 mb - 0.00 in0.0 mm 0.16 in4.1 mm
06:15 AM 56.0°F13.3°C 55.7°F13.2°C 99% Calm Calm -- 26.42 in894.7 mb - 0.00 in0.0 mm 0.16 in4.1 mm
06:20 AM 57.0°F13.9°C 56.7°F13.7°C 99% Calm Calm -- 26.43 in895.0 mb - 0.00 in0.0 mm 0.16 in4.1 mm
06:25 AM 57.0°F13.9°C 56.7°F13.7°C 99% Calm Calm -- 26.43 in895.0 mb - 0.00 in0.0 mm 0.16 in4.1 mm
06:30 AM 57.0°F13.9°C 56.7°F13.7°C 99% Calm Calm -- 26.43 in895.0 mb - 0.00 in0.0 mm 0.16 in4.1 mm
06:35 AM 57.0°F13.9°C 56.7°F13.7°C 99% Calm Calm -- 26.42 in894.7 mb - 0.00 in0.0 mm 0.16 in4.1 mm
06:40 AM 57.0°F13.9°C 56.7°F13.7°C 99% Calm Calm -- 26.42 in894.7 mb - 0.00 in0.0 mm 0.16 in4.1 mm
06:45 AM 58.0°F14.4°C 57.7°F14.3°C 99% Calm Calm -- 26.43 in895.0 mb - 0.00 in0.0 mm 0.16 in4.1 mm
06:50 AM 58.0°F14.4°C 57.7°F14.3°C 99% Calm Calm -- 26.42 in894.7 mb - 0.00 in0.0 mm 0.16 in4.1 mm
06:55 AM 58.0°F14.4°C 57.7°F14.3°C 99% Calm Calm -- 26.42 in894.7 mb - 0.00 in0.0 mm 0.16 in4.1 mm
07:00 AM 58.0°F14.4°C 57.7°F14.3°C 99% Calm Calm -- 26.42 in894.7 mb - 0.00 in0.0 mm 0.16 in4.1 mm
07:10 AM 58.0°F14.4°C 57.7°F14.3°C 99% Calm Calm -- 26.41 in894.3 mb - 0.00 in0.0 mm 0.16 in4.1 mm
07:15 AM 58.0°F14.4°C 57.7°F14.3°C 99% Calm Calm -- 26.42 in894.7 mb - 0.00 in0.0 mm 0.16 in4.1 mm
07:20 AM 59.0°F15.0°C 58.7°F14.8°C 99% Calm Calm -- 26.41 in894.3 mb - 0.00 in0.0 mm 0.16 in4.1 mm
07:25 AM 59.0°F15.0°C 58.7°F14.8°C 99% Calm Calm -- 26.41 in894.3 mb - 0.00 in0.0 mm 0.16 in4.1 mm
07:30 AM 59.0°F15.0°C 58.2°F14.6°C 97% 1.2 mph SW1.9 kmh SW 1.2 mph1.9 kmh 26.41 in894.3 mb - 0.00 in0.0 mm 0.16 in4.1 mm
07:35 AM 59.5°F15.3°C 58.4°F14.7°C 96% Calm Calm 1.2 mph1.9 kmh 26.41 in894.3 mb - 0.00 in0.0 mm 0.16 in4.1 mm
07:40 AM 60.0°F15.6°C 58.9°F14.9°C 96% Calm Calm -- 26.41 in894.3 mb - 0.00 in0.0 mm 0.16 in4.1 mm
07:45 AM 60.0°F15.6°C 58.9°F14.9°C 96% Calm Calm -- 26.41 in894.3 mb - 0.00 in0.0 mm 0.16 in4.1 mm
07:50 AM 60.0°F15.6°C 59.1°F15.1°C 97% Calm Calm -- 26.41 in894.3 mb - 0.00 in0.0 mm 0.16 in4.1 mm
07:55 AM 60.0°F15.6°C 57.4°F14.1°C 91% Calm Calm -- 26.41 in894.3 mb - 0.00 in0.0 mm 0.16 in4.1 mm
08:00 AM 60.0°F15.6°C 58.6°F14.8°C 95% Calm Calm -- 26.41 in894.3 mb - 0.00 in0.0 mm 0.16 in4.1 mm
08:10 AM 61.0°F16.1°C 59.9°F15.5°C 96% Calm Calm -- 26.41 in894.3 mb - 0.00 in0.0 mm 0.16 in4.1 mm
08:15 AM 62.0°F16.7°C 60.6°F15.9°C 95% Calm Calm -- 26.41 in894.3 mb - 0.00 in0.0 mm 0.16 in4.1 mm
08:20 AM 62.0°F16.7°C 59.0°F15.0°C 90% Calm Calm -- 26.41 in894.3 mb - 0.00 in0.0 mm 0.16 in4.1 mm
08:25 AM 61.0°F16.1°C 59.3°F15.2°C 94% Calm Calm -- 26.40 in894.0 mb - 0.01 in0.3 mm 0.17 in4.3 mm
08:30 AM 62.0°F16.7°C 60.8°F16.0°C 96% Calm Calm -- 26.40 in894.0 mb - 0.01 in0.3 mm 0.17 in4.3 mm
08:35 AM 62.0°F16.7°C 60.8°F16.0°C 96% Calm Calm -- 26.40 in894.0 mb - 0.01 in0.3 mm 0.17 in4.3 mm
08:40 AM 62.0°F16.7°C 60.8°F16.0°C 96% Calm Calm -- 26.41 in894.3 mb - 0.01 in0.3 mm 0.17 in4.3 mm
08:45 AM 62.0°F16.7°C 60.8°F16.0°C 96% Calm Calm -- 26.41 in894.3 mb - 0.01 in0.3 mm 0.17 in4.3 mm
08:50 AM 62.0°F16.7°C 60.8°F16.0°C 96% Calm Calm -- 26.41 in894.3 mb - 0.01 in0.3 mm 0.17 in4.3 mm
08:55 AM 62.0°F16.7°C 60.3°F15.7°C 94% Calm Calm -- 26.40 in894.0 mb - 0.01 in0.3 mm 0.17 in4.3 mm
09:00 AM 62.0°F16.7°C 60.8°F16.0°C 96% Calm Calm -- 26.41 in894.3 mb - 0.01 in0.3 mm 0.17 in4.3 mm
09:10 AM 62.0°F16.7°C 59.6°F15.3°C 92% Calm Calm -- 26.40 in894.0 mb - 0.01 in0.3 mm 0.17 in4.3 mm
09:15 AM 62.0°F16.7°C 60.6°F15.9°C 95% Calm Calm -- 26.40 in894.0 mb - 0.01 in0.3 mm 0.17 in4.3 mm
09:20 AM 61.0°F16.1°C 58.7°F14.8°C 92% Calm Calm -- 26.40 in894.0 mb - 0.01 in0.3 mm 0.17 in4.3 mm
09:25 AM 62.0°F16.7°C 60.3°F15.7°C 94% Calm Calm -- 26.40 in894.0 mb - 0.00 in0.0 mm 0.17 in4.3 mm
09:30 AM 62.0°F16.7°C 59.6°F15.3°C 92% Calm Calm -- 26.40 in894.0 mb - 0.00 in0.0 mm 0.17 in4.3 mm
09:35 AM 62.0°F16.7°C 59.6°F15.3°C 92% Calm Calm -- 26.40 in894.0 mb - 0.00 in0.0 mm 0.17 in4.3 mm
09:40 AM 62.0°F16.7°C 60.3°F15.7°C 94% Calm Calm -- 26.40 in894.0 mb - 0.00 in0.0 mm 0.17 in4.3 mm
09:45 AM 63.0°F17.2°C 61.5°F16.4°C 95% Calm Calm -- 26.41 in894.3 mb - 0.00 in0.0 mm 0.17 in4.3 mm
09:50 AM 63.0°F17.2°C 60.6°F15.9°C 92% Calm Calm -- 26.41 in894.3 mb - 0.00 in0.0 mm 0.17 in4.3 mm
09:55 AM 63.0°F17.2°C 60.6°F15.9°C 92% Calm Calm -- 26.40 in894.0 mb - 0.00 in0.0 mm 0.17 in4.3 mm
10:00 AM 63.0°F17.2°C 60.6°F15.9°C 92% Calm Calm -- 26.41 in894.3 mb - 0.00 in0.0 mm 0.17 in4.3 mm
10:10 AM 63.0°F17.2°C 60.6°F15.9°C 92% 1.2 mph N1.9 kmh N 2.3 mph3.7 kmh 26.41 in894.3 mb - 0.00 in0.0 mm 0.17 in4.3 mm
10:15 AM 63.0°F17.2°C 58.7°F14.8°C 86% Calm Calm 1.2 mph1.9 kmh 26.42 in894.7 mb - 0.00 in0.0 mm 0.17 in4.3 mm
10:20 AM 63.0°F17.2°C 59.4°F15.2°C 88% Calm Calm 1.2 mph1.9 kmh 26.41 in894.3 mb - 0.00 in0.0 mm 0.17 in4.3 mm
10:25 AM 63.0°F17.2°C 59.1°F15.1°C 87% Calm Calm 1.2 mph1.9 kmh 26.42 in894.7 mb - 0.00 in0.0 mm 0.17 in4.3 mm
10:30 AM 63.0°F17.2°C 59.1°F15.1°C 87% Calm Calm 1.2 mph1.9 kmh 26.42 in894.7 mb - 0.00 in0.0 mm 0.17 in4.3 mm
10:35 AM 63.0°F17.2°C 58.1°F14.5°C 84% Calm Calm 1.2 mph1.9 kmh 26.42 in894.7 mb - 0.00 in0.0 mm 0.17 in4.3 mm
10:40 AM 64.0°F17.8°C 60.1°F15.6°C 87% Calm Calm -- 26.42 in894.7 mb - 0.00 in0.0 mm 0.17 in4.3 mm
10:45 AM 64.0°F17.8°C 60.7°F15.9°C 89% Calm Calm -- 26.42 in894.7 mb - 0.00 in0.0 mm 0.17 in4.3 mm
10:50 AM 64.0°F17.8°C 60.1°F15.6°C 87% 1.2 mph WSW1.9 kmh WSW 1.2 mph1.9 kmh 26.41 in894.3 mb - 0.00 in0.0 mm 0.17 in4.3 mm
10:55 AM 64.2°F17.9°C 60.2°F15.7°C 87% 1.2 mph W1.9 kmh W 1.2 mph1.9 kmh 26.41 in894.3 mb - 0.00 in0.0 mm 0.17 in4.3 mm
11:00 AM 65.0°F18.3°C 60.4°F15.8°C 85% Calm Calm 1.2 mph1.9 kmh 26.41 in894.3 mb - 0.00 in0.0 mm 0.17 in4.3 mm
11:10 AM 65.0°F18.3°C 60.0°F15.6°C 84% 1.2 mph NNE1.9 kmh NNE 2.3 mph3.7 kmh 26.42 in894.7 mb - 0.00 in0.0 mm 0.17 in4.3 mm
11:15 AM 66.0°F18.9°C 60.3°F15.7°C 82% Calm Calm -- 26.41 in894.3 mb - 0.00 in0.0 mm 0.17 in4.3 mm
11:20 AM 66.0°F18.9°C 60.3°F15.7°C 82% Calm Calm 1.2 mph1.9 kmh 26.41 in894.3 mb - 0.00 in0.0 mm 0.17 in4.3 mm
11:25 AM 66.0°F18.9°C 60.3°F15.7°C 82% 1.2 mph N1.9 kmh N 1.2 mph1.9 kmh 26.42 in894.7 mb - 0.00 in0.0 mm 0.17 in4.3 mm
11:30 AM 66.0°F18.9°C 59.7°F15.4°C 80% Calm Calm 1.2 mph1.9 kmh 26.42 in894.7 mb - 0.00 in0.0 mm 0.17 in4.3 mm
11:35 AM 66.0°F18.9°C 60.3°F15.7°C 82% Calm Calm -- 26.41 in894.3 mb - 0.00 in0.0 mm 0.17 in4.3 mm
11:40 AM 66.0°F18.9°C 60.0°F15.6°C 81% Calm Calm 1.2 mph1.9 kmh 26.42 in894.7 mb - 0.00 in0.0 mm 0.17 in4.3 mm
11:45 AM 66.0°F18.9°C 60.0°F15.6°C 81% Calm Calm 1.2 mph1.9 kmh 26.42 in894.7 mb - 0.00 in0.0 mm 0.17 in4.3 mm
11:50 AM 66.0°F18.9°C 59.7°F15.4°C 80% 1.2 mph ENE1.9 kmh ENE 1.2 mph1.9 kmh 26.42 in894.7 mb - 0.00 in0.0 mm 0.17 in4.3 mm
11:55 AM 66.0°F18.9°C 59.7°F15.4°C 80% Calm Calm -- 26.42 in894.7 mb - 0.00 in0.0 mm 0.17 in4.3 mm
12:00 PM 66.0°F18.9°C 57.1°F13.9°C 73% Calm Calm -- 26.41 in894.3 mb - 0.00 in0.0 mm 0.17 in4.3 mm
12:10 PM 67.0°F19.4°C 58.4°F14.7°C 74% Calm Calm -- 26.41 in894.3 mb - 0.00 in0.0 mm 0.17 in4.3 mm
12:15 PM 67.0°F19.4°C 57.7°F14.3°C 72% Calm Calm -- 26.42 in894.7 mb - 0.00 in0.0 mm 0.17 in4.3 mm
12:20 PM 69.0°F20.6°C 46.8°F8.2°C 45% 1.2 mph SE1.9 kmh SE 2.3 mph3.7 kmh 26.41 in894.3 mb - 0.00 in0.0 mm 0.17 in4.3 mm
12:25 PM 68.0°F20.0°C 57.0°F13.9°C 68% 1.2 mph NNW1.9 kmh NNW 2.3 mph3.7 kmh 26.42 in894.7 mb - 0.00 in0.0 mm 0.17 in4.3 mm
12:30 PM 68.0°F20.0°C 54.0°F12.2°C 61% 1.2 mph NE1.9 kmh NE 2.3 mph3.7 kmh 26.42 in894.7 mb - 0.00 in0.0 mm 0.17 in4.3 mm
12:35 PM 68.5°F20.3°C 54.0°F12.2°C 60% 1.2 mph NE1.9 kmh NE 2.3 mph3.7 kmh 26.42 in894.7 mb - 0.00 in0.0 mm 0.17 in4.3 mm
12:40 PM 69.0°F20.6°C 53.6°F12.0°C 58% 1.2 mph NE1.9 kmh NE 1.2 mph1.9 kmh 26.42 in894.7 mb - 0.00 in0.0 mm 0.17 in4.3 mm
12:45 PM 69.0°F20.6°C 53.1°F11.7°C 57% Calm Calm 1.2 mph1.9 kmh 26.42 in894.7 mb - 0.00 in0.0 mm 0.17 in4.3 mm
12:50 PM 69.0°F20.6°C 56.3°F13.5°C 64% Calm Calm -- 26.43 in895.0 mb - 0.00 in0.0 mm 0.17 in4.3 mm
12:55 PM 69.0°F20.6°C 52.2°F11.2°C 55% Calm Calm 1.2 mph1.9 kmh 26.41 in894.3 mb - 0.00 in0.0 mm 0.17 in4.3 mm
01:00 PM 69.0°F20.6°C 54.1°F12.3°C 59% Calm Calm 1.2 mph1.9 kmh 26.41 in894.3 mb - 0.00 in0.0 mm 0.17 in4.3 mm
01:10 PM 70.0°F21.1°C 57.7°F14.3°C 65% 1.2 mph N1.9 kmh N 1.2 mph1.9 kmh 26.42 in894.7 mb - 0.00 in0.0 mm 0.17 in4.3 mm
01:15 PM 70.0°F21.1°C 55.9°F13.3°C 61% Calm Calm -- 26.42 in894.7 mb - 0.00 in0.0 mm 0.17 in4.3 mm
01:20 PM 71.0°F21.7°C 57.3°F14.1°C 62% Calm Calm 1.2 mph1.9 kmh 26.42 in894.7 mb - 0.00 in0.0 mm 0.17 in4.3 mm
01:25 PM 71.0°F21.7°C 55.5°F13.1°C 58% 1.2 mph NW1.9 kmh NW 1.2 mph1.9 kmh 26.42 in894.7 mb - 0.00 in0.0 mm 0.17 in4.3 mm
01:30 PM 71.0°F21.7°C 55.5°F13.1°C 58% 1.2 mph NNW1.9 kmh NNW 2.3 mph3.7 kmh 26.42 in894.7 mb - 0.00 in0.0 mm 0.17 in4.3 mm
01:35 PM 71.0°F21.7°C 60.3°F15.7°C 69% 1.2 mph N1.9 kmh N 2.3 mph3.7 kmh 26.43 in895.0 mb - 0.00 in0.0 mm 0.17 in4.3 mm
01:40 PM 70.0°F21.1°C 58.5°F14.7°C 67% Calm Calm -- 26.42 in894.7 mb - 0.00 in0.0 mm 0.17 in4.3 mm
01:45 PM 71.0°F21.7°C 62.3°F16.8°C 74% 1.2 mph N1.9 kmh N 2.3 mph3.7 kmh 26.42 in894.7 mb - 0.00 in0.0 mm 0.17 in4.3 mm
01:50 PM 70.0°F21.1°C 60.2°F15.7°C 71% Calm Calm 1.2 mph1.9 kmh 26.42 in894.7 mb - 0.00 in0.0 mm 0.17 in4.3 mm
01:55 PM 70.0°F21.1°C 61.3°F16.3°C 74% 1.2 mph N1.9 kmh N 2.3 mph3.7 kmh 26.41 in894.3 mb - 0.00 in0.0 mm 0.17 in4.3 mm
02:00 PM 70.0°F21.1°C 61.7°F16.5°C 75% 1.2 mph N1.9 kmh N 2.3 mph3.7 kmh 26.41 in894.3 mb - 0.00 in0.0 mm 0.17 in4.3 mm
02:10 PM 69.0°F20.6°C 59.2°F15.1°C 71% 2.3 mph WSW3.7 kmh WSW 3.5 mph5.6 kmh 26.42 in894.7 mb - 0.00 in0.0 mm 0.17 in4.3 mm
02:15 PM 70.0°F21.1°C 60.2°F15.7°C 71% Calm Calm 1.2 mph1.9 kmh 26.41 in894.3 mb - 0.00 in0.0 mm 0.17 in4.3 mm
02:20 PM 69.0°F20.6°C 60.0°F15.6°C 73% 2.3 mph W3.7 kmh W 2.3 mph3.7 kmh 26.42 in894.7 mb - 0.00 in0.0 mm 0.17 in4.3 mm
02:25 PM 69.7°F20.9°C 59.8°F15.4°C 71% 2.3 mph NW3.7 kmh NW 2.3 mph3.7 kmh 26.42 in894.7 mb - 0.00 in0.0 mm 0.17 in4.3 mm
02:30 PM 70.0°F21.1°C 59.8°F15.4°C 70% 2.3 mph NNW3.7 kmh NNW 2.3 mph3.7 kmh 26.42 in894.7 mb - 0.00 in0.0 mm 0.17 in4.3 mm
02:35 PM 69.0°F20.6°C 60.0°F15.6°C 73% 2.3 mph NNE3.7 kmh NNE 2.3 mph3.7 kmh 26.42 in894.7 mb - 0.00 in0.0 mm 0.17 in4.3 mm
02:40 PM 69.0°F20.6°C 61.5°F16.4°C 77% 1.2 mph NNE1.9 kmh NNE 2.3 mph3.7 kmh 26.41 in894.3 mb - 0.00 in0.0 mm 0.17 in4.3 mm
02:45 PM 69.0°F20.6°C 61.1°F16.2°C 76% 2.3 mph WSW3.7 kmh WSW 2.3 mph3.7 kmh 26.41 in894.3 mb - 0.00 in0.0 mm 0.17 in4.3 mm
02:50 PM 69.0°F20.6°C 59.6°F15.3°C 72% 3.5 mph NW5.6 kmh NW 3.5 mph5.6 kmh 26.41 in894.3 mb - 0.00 in0.0 mm 0.17 in4.3 mm
02:55 PM 69.4°F20.8°C 60.0°F15.6°C 72% 2.3 mph NNW3.7 kmh NNW 3.5 mph5.6 kmh 26.41 in894.3 mb - 0.00 in0.0 mm 0.17 in4.3 mm
03:00 PM 70.0°F21.1°C 60.9°F16.1°C 73% Calm Calm 1.2 mph1.9 kmh 26.41 in894.3 mb - 0.00 in0.0 mm 0.17 in4.3 mm
03:10 PM 69.0°F20.6°C 58.4°F14.7°C 69% Calm Calm 1.2 mph1.9 kmh 26.41 in894.3 mb - 0.00 in0.0 mm 0.17 in4.3 mm
03:15 PM 69.0°F20.6°C 59.2°F15.1°C 71% Calm Calm -- 26.41 in894.3 mb - 0.00 in0.0 mm 0.17 in4.3 mm
03:20 PM 68.0°F20.0°C 58.6°F14.8°C 72% Calm Calm -- 26.41 in894.3 mb - 0.00 in0.0 mm 0.17 in4.3 mm
03:25 PM 68.0°F20.0°C 59.0°F15.0°C 73% Calm Calm 1.2 mph1.9 kmh 26.41 in894.3 mb - 0.00 in0.0 mm 0.17 in4.3 mm
03:30 PM 68.0°F20.0°C 59.8°F15.4°C 75% Calm Calm 1.2 mph1.9 kmh 26.41 in894.3 mb - 0.00 in0.0 mm 0.17 in4.3 mm
03:35 PM 68.0°F20.0°C 54.9°F12.7°C 63% 1.2 mph WSW1.9 kmh WSW 1.2 mph1.9 kmh 26.42 in894.7 mb - 0.00 in0.0 mm 0.17 in4.3 mm
03:40 PM 69.0°F20.6°C 53.6°F12.0°C 58% 1.2 mph NW1.9 kmh NW 1.2 mph1.9 kmh 26.41 in894.3 mb - 0.00 in0.0 mm 0.17 in4.3 mm
03:45 PM 70.0°F21.1°C 53.6°F12.0°C 56% 1.2 mph NE1.9 kmh NE 1.2 mph1.9 kmh 26.40 in894.0 mb - 0.00 in0.0 mm 0.17 in4.3 mm
03:50 PM 70.0°F21.1°C 55.0°F12.8°C 59% 1.2 mph NNE1.9 kmh NNE 1.2 mph1.9 kmh 26.41 in894.3 mb - 0.00 in0.0 mm 0.17 in4.3 mm
03:55 PM 69.9°F21.1°C 55.4°F13.0°C 60% 1.2 mph NNE1.9 kmh NNE 1.2 mph1.9 kmh 26.41 in894.3 mb - 0.00 in0.0 mm 0.17 in4.3 mm
04:00 PM 69.0°F20.6°C 58.0°F14.4°C 68% Calm Calm -- 26.41 in894.3 mb - 0.00 in0.0 mm 0.17 in4.3 mm
04:10 PM 68.0°F20.0°C 55.4°F13.0°C 64% 1.2 mph NNE1.9 kmh NNE 1.2 mph1.9 kmh 26.41 in894.3 mb - 0.00 in0.0 mm 0.17 in4.3 mm
04:15 PM 68.0°F20.0°C 55.4°F13.0°C 64% Calm Calm -- 26.41 in894.3 mb - 0.00 in0.0 mm 0.17 in4.3 mm
04:20 PM 68.0°F20.0°C 55.4°F13.0°C 64% Calm Calm 2.3 mph3.7 kmh 26.41 in894.3 mb - 0.00 in0.0 mm 0.17 in4.3 mm
04:25 PM 68.0°F20.0°C 56.2°F13.4°C 66% 2.3 mph NW3.7 kmh NW 2.3 mph3.7 kmh 26.42 in894.7 mb - 0.00 in0.0 mm 0.17 in4.3 mm
04:30 PM 68.0°F20.0°C 60.2°F15.7°C 76% Calm Calm -- 26.42 in894.7 mb - 0.00 in0.0 mm 0.17 in4.3 mm
04:35 PM 70.0°F21.1°C 60.9°F16.1°C 73% Calm Calm 1.2 mph1.9 kmh 26.41 in894.3 mb - 0.00 in0.0 mm 0.17 in4.3 mm
04:40 PM 67.0°F19.4°C 54.8°F12.7°C 65% 1.2 mph WSW1.9 kmh WSW 1.2 mph1.9 kmh 26.42 in894.7 mb - 0.00 in0.0 mm 0.17 in4.3 mm
04:45 PM 67.0°F19.4°C 54.8°F12.7°C 65% 1.2 mph W1.9 kmh W 3.5 mph5.6 kmh 26.42 in894.7 mb - 0.00 in0.0 mm 0.17 in4.3 mm
04:50 PM 67.0°F19.4°C 55.3°F12.9°C 66% 2.3 mph NNW3.7 kmh NNW 3.5 mph5.6 kmh 26.43 in895.0 mb - 0.00 in0.0 mm 0.17 in4.3 mm
04:55 PM 66.0°F18.9°C 53.9°F12.2°C 65% 3.5 mph NE5.6 kmh NE 5.8 mph9.3 kmh 26.44 in895.4 mb - 0.00 in0.0 mm 0.17 in4.3 mm
05:00 PM 66.0°F18.9°C 53.0°F11.7°C 63% 2.3 mph W3.7 kmh W 3.5 mph5.6 kmh 26.44 in895.4 mb - 0.00 in0.0 mm 0.17 in4.3 mm
05:10 PM 64.0°F17.8°C 52.8°F11.6°C 67% 2.3 mph W3.7 kmh W 2.3 mph3.7 kmh 26.45 in895.7 mb - 0.00 in0.0 mm 0.17 in4.3 mm
05:15 PM 64.0°F17.8°C 53.2°F11.8°C 68% 1.2 mph W1.9 kmh W 1.2 mph1.9 kmh 26.45 in895.7 mb - 0.00 in0.0 mm 0.17 in4.3 mm
05:20 PM 64.0°F17.8°C 51.6°F10.9°C 64% 1.2 mph WNW1.9 kmh WNW 1.2 mph1.9 kmh 26.44 in895.4 mb - 0.00 in0.0 mm 0.17 in4.3 mm
05:25 PM 65.0°F18.3°C 51.2°F10.7°C 61% Calm Calm 1.2 mph1.9 kmh 26.44 in895.4 mb - 0.00 in0.0 mm 0.17 in4.3 mm
05:30 PM 65.0°F18.3°C 55.0°F12.8°C 70% Calm Calm -- 26.46 in896.0 mb - 0.00 in0.0 mm 0.17 in4.3 mm
05:35 PM 64.6°F18.1°C 52.9°F11.6°C 66% Calm Calm 1.2 mph1.9 kmh 26.46 in896.0 mb - 0.00 in0.0 mm 0.17 in4.3 mm
05:40 PM 64.0°F17.8°C 50.3°F10.2°C 61% 1.2 mph ENE1.9 kmh ENE 1.2 mph1.9 kmh 26.46 in896.0 mb - 0.00 in0.0 mm 0.17 in4.3 mm
05:45 PM 64.0°F17.8°C 54.4°F12.4°C 71% Calm Calm 1.2 mph1.9 kmh 26.46 in896.0 mb - 0.00 in0.0 mm 0.17 in4.3 mm
05:50 PM 63.0°F17.2°C 56.7°F13.7°C 80% Calm Calm -- 26.46 in896.0 mb - 0.00 in0.0 mm 0.17 in4.3 mm
05:55 PM 61.0°F16.1°C 52.7°F11.5°C 74% Calm Calm 1.2 mph1.9 kmh 26.47 in896.4 mb - 0.00 in0.0 mm 0.17 in4.3 mm
06:00 PM 61.0°F16.1°C 54.1°F12.3°C 78% Calm Calm 1.2 mph1.9 kmh 26.47 in896.4 mb - 0.01 in0.3 mm 0.18 in4.6 mm
06:10 PM 61.0°F16.1°C 54.4°F12.4°C 79% Calm Calm -- 26.46 in896.0 mb - 0.01 in0.3 mm 0.18 in4.6 mm
06:15 PM 61.0°F16.1°C 53.0°F11.7°C 75% Calm Calm -- 26.45 in895.7 mb - 0.01 in0.3 mm 0.18 in4.6 mm
06:20 PM 62.0°F16.7°C 54.3°F12.4°C 76% Calm Calm -- 26.45 in895.7 mb - 0.01 in0.3 mm 0.18 in4.6 mm
06:25 PM 61.3°F16.3°C 54.4°F12.4°C 78% Calm Calm -- 26.46 in896.0 mb - 0.01 in0.3 mm 0.18 in4.6 mm
06:30 PM 61.0°F16.1°C 54.4°F12.4°C 79% Calm Calm -- 26.46 in896.0 mb - 0.01 in0.3 mm 0.18 in4.6 mm
06:35 PM 61.0°F16.1°C 54.4°F12.4°C 79% Calm Calm -- 26.46 in896.0 mb - 0.01 in0.3 mm 0.18 in4.6 mm
06:40 PM 61.0°F16.1°C 54.4°F12.4°C 79% Calm Calm -- 26.47 in896.4 mb - 0.01 in0.3 mm 0.18 in4.6 mm
06:45 PM 61.0°F16.1°C 53.4°F11.9°C 76% Calm Calm -- 26.46 in896.0 mb - 0.01 in0.3 mm 0.18 in4.6 mm
06:50 PM 61.0°F16.1°C 53.4°F11.9°C 76% Calm Calm 1.2 mph1.9 kmh 26.46 in896.0 mb - 0.01 in0.3 mm 0.18 in4.6 mm
06:55 PM 61.0°F16.1°C 53.4°F11.9°C 76% Calm Calm 1.2 mph1.9 kmh 26.46 in896.0 mb - 0.01 in0.3 mm 0.18 in4.6 mm
07:00 PM 61.0°F16.1°C 52.7°F11.5°C 74% Calm Calm 1.2 mph1.9 kmh 26.47 in896.4 mb - 0.01 in0.3 mm 0.18 in4.6 mm
07:10 PM 61.0°F16.1°C 54.8°F12.7°C 80% Calm Calm -- 26.47 in896.4 mb - 0.00 in0.0 mm 0.18 in4.6 mm
07:15 PM 61.0°F16.1°C 54.4°F12.4°C 79% Calm Calm 1.2 mph1.9 kmh 26.47 in896.4 mb - 0.00 in0.0 mm 0.18 in4.6 mm
07:20 PM 61.0°F16.1°C 53.7°F12.1°C 77% Calm Calm 1.2 mph1.9 kmh 26.48 in896.7 mb - 0.00 in0.0 mm 0.18 in4.6 mm
07:25 PM 61.0°F16.1°C 52.3°F11.3°C 73% Calm Calm 1.2 mph1.9 kmh 26.49 in897.1 mb - 0.00 in0.0 mm 0.18 in4.6 mm
07:30 PM 55.0°F12.8°C 54.7°F12.6°C 99% Calm Calm -- 26.61 in901.1 mb - 0.00 in0.0 mm 0.18 in4.6 mm
07:35 PM 70.0°F21.1°C 55.0°F12.8°C 59% 1.2 mph NNE1.9 kmh NNE 1.2 mph1.9 kmh 26.41 in894.3 mb - 0.12 in3.0 mm 0.30 in7.6 mm
07:40 PM 60.0°F15.6°C 52.1°F11.2°C 75% Calm Calm -- 26.49 in897.1 mb - 0.13 in3.3 mm 0.31 in7.9 mm
07:45 PM 60.0°F15.6°C 54.2°F12.3°C 81% Calm Calm -- 26.49 in897.1 mb - 0.13 in3.3 mm 0.31 in7.9 mm
07:50 PM 59.9°F15.5°C 54.1°F12.3°C 81% Calm Calm -- 26.49 in897.1 mb - 0.13 in3.3 mm 0.31 in7.9 mm
07:55 PM 59.0°F15.0°C 53.5°F11.9°C 82% Calm Calm -- 26.50 in897.4 mb - 0.13 in3.3 mm 0.31 in7.9 mm
08:00 PM 59.0°F15.0°C 57.0°F13.9°C 93% Calm Calm -- 26.50 in897.4 mb - 0.14 in3.6 mm 0.32 in8.1 mm
08:10 PM 57.0°F13.9°C 55.3°F12.9°C 94% Calm Calm -- 26.49 in897.1 mb - 0.15 in3.8 mm 0.33 in8.4 mm
08:15 PM 66.8°F19.3°C 65.0°F18.3°C 94% 1.2 mph NE1.9 kmh NE 1.2 mph1.9 kmh 26.43 in895.0 mb - 0.15 in3.8 mm 0.33 in8.4 mm
08:20 PM 69.0°F20.6°C 53.6°F12.0°C 58% 1.2 mph NE1.9 kmh NE 1.2 mph1.9 kmh 26.42 in894.7 mb - 0.15 in3.8 mm 0.33 in8.4 mm
08:25 PM 56.0°F13.3°C 54.9°F12.7°C 96% Calm Calm 1.2 mph1.9 kmh 26.48 in896.7 mb - 0.21 in5.3 mm 0.39 in9.9 mm
08:30 PM 55.0°F12.8°C 53.9°F12.2°C 96% Calm Calm -- 26.48 in896.7 mb - 0.21 in5.3 mm 0.39 in9.9 mm
08:35 PM 56.0°F13.3°C 54.9°F12.7°C 96% Calm Calm 1.2 mph1.9 kmh 26.48 in896.7 mb - 0.09 in2.3 mm 0.39 in9.9 mm
08:40 PM 55.0°F12.8°C 53.6°F12.0°C 95% Calm Calm 1.2 mph1.9 kmh 26.47 in896.4 mb - 0.08 in2.0 mm 0.39 in9.9 mm
08:45 PM 55.0°F12.8°C 53.9°F12.2°C 96% Calm Calm 1.2 mph1.9 kmh 26.47 in896.4 mb - 0.08 in2.0 mm 0.39 in9.9 mm
08:50 PM 55.0°F12.8°C 53.9°F12.2°C 96% Calm Calm -- 26.47 in896.4 mb - 0.08 in2.0 mm 0.39 in9.9 mm
08:55 PM 56.0°F13.3°C 54.9°F12.7°C 96% Calm Calm -- 26.47 in896.4 mb - 0.08 in2.0 mm 0.39 in9.9 mm
09:00 PM 55.0°F12.8°C 54.2°F12.3°C 97% Calm Calm -- 26.45 in895.7 mb - 0.07 in1.8 mm 0.39 in9.9 mm
09:10 PM 61.0°F16.1°C 54.8°F12.7°C 80% Calm Calm -- 26.47 in896.4 mb - 0.06 in1.5 mm 0.39 in9.9 mm
09:15 PM 55.0°F12.8°C 48.9°F9.4°C 80% Calm Calm -- 26.46 in896.0 mb - 0.11 in2.8 mm 0.44 in11.2 mm
09:20 PM 55.0°F12.8°C 54.2°F12.3°C 97% Calm Calm -- 26.46 in896.0 mb - 0.11 in2.8 mm 0.44 in11.2 mm
09:25 PM 55.0°F12.8°C 54.2°F12.3°C 97% Calm Calm -- 26.45 in895.7 mb - 0.05 in1.3 mm 0.44 in11.2 mm
09:30 PM 55.0°F12.8°C 54.2°F12.3°C 97% Calm Calm -- 26.45 in895.7 mb - 0.05 in1.3 mm 0.44 in11.2 mm
09:35 PM 55.0°F12.8°C 54.2°F12.3°C 97% Calm Calm -- 26.45 in895.7 mb - 0.05 in1.3 mm 0.44 in11.2 mm
09:40 PM 55.0°F12.8°C 54.2°F12.3°C 97% Calm Calm -- 26.45 in895.7 mb - 0.05 in1.3 mm 0.44 in11.2 mm
09:45 PM 55.0°F12.8°C 54.2°F12.3°C 97% Calm Calm -- 26.44 in895.4 mb - 0.05 in1.3 mm 0.44 in11.2 mm
09:50 PM 55.0°F12.8°C 54.2°F12.3°C 97% Calm Calm -- 26.45 in895.7 mb - 0.05 in1.3 mm 0.44 in11.2 mm
09:55 PM 55.0°F12.8°C 54.2°F12.3°C 97% Calm Calm -- 26.45 in895.7 mb - 0.05 in1.3 mm 0.44 in11.2 mm
10:00 PM 55.0°F12.8°C 54.2°F12.3°C 97% Calm Calm -- 26.46 in896.0 mb - 0.05 in1.3 mm 0.44 in11.2 mm
10:10 PM 55.0°F12.8°C 54.2°F12.3°C 97% Calm Calm -- 26.47 in896.4 mb - 0.06 in1.5 mm 0.45 in11.4 mm
10:15 PM 55.0°F12.8°C 54.4°F12.4°C 98% Calm Calm -- 26.46 in896.0 mb - 0.02 in0.5 mm 0.46 in11.7 mm
10:20 PM 55.0°F12.8°C 54.4°F12.4°C 98% Calm Calm -- 26.46 in896.0 mb - 0.03 in0.8 mm 0.47 in11.9 mm
10:25 PM 55.0°F12.8°C 54.4°F12.4°C 98% Calm Calm -- 26.46 in896.0 mb - 0.05 in1.3 mm 0.49 in12.4 mm
10:30 PM 55.0°F12.8°C 54.4°F12.4°C 98% Calm Calm -- 26.46 in896.0 mb - 0.05 in1.3 mm 0.49 in12.4 mm
10:35 PM 55.0°F12.8°C 54.4°F12.4°C 98% Calm Calm -- 26.44 in895.4 mb - 0.05 in1.3 mm 0.49 in12.4 mm
10:40 PM 55.0°F12.8°C 54.4°F12.4°C 98% Calm Calm -- 26.44 in895.4 mb - 0.06 in1.5 mm 0.50 in12.7 mm
10:45 PM 55.0°F12.8°C 54.4°F12.4°C 98% Calm Calm -- 26.45 in895.7 mb - 0.11 in2.8 mm 0.55 in14.0 mm
10:50 PM 55.0°F12.8°C 54.4°F12.4°C 98% Calm Calm -- 26.45 in895.7 mb - 0.24 in6.1 mm 0.68 in17.3 mm
10:55 PM 55.0°F12.8°C 54.2°F12.3°C 97% Calm Calm -- 26.45 in895.7 mb - 0.24 in6.1 mm 0.68 in17.3 mm
11:00 PM 55.0°F12.8°C 54.2°F12.3°C 97% Calm Calm 1.2 mph1.9 kmh 26.45 in895.7 mb - 0.24 in6.1 mm 4.50 in114.3 mm
11:10 PM 54.0°F12.2°C 53.7°F12.1°C 99% Calm Calm -- 26.46 in896.0 mb - 0.24 in6.1 mm 0.01 in0.3 mm
11:15 PM 54.0°F12.2°C 53.7°F12.1°C 99% Calm Calm -- 26.46 in896.0 mb - 0.23 in5.8 mm 0.01 in0.3 mm
11:20 PM 54.0°F12.2°C 53.7°F12.1°C 99% Calm Calm -- 26.46 in896.0 mb - 0.22 in5.6 mm 0.01 in0.3 mm
11:25 PM 54.0°F12.2°C 53.7°F12.1°C 99% Calm Calm -- 26.45 in895.7 mb - 0.26 in6.6 mm 0.05 in1.3 mm
11:30 PM 54.0°F12.2°C 53.7°F12.1°C 99% Calm Calm -- 26.45 in895.7 mb - 0.24 in6.1 mm 0.05 in1.3 mm
11:35 PM 54.0°F12.2°C 53.7°F12.1°C 99% Calm Calm -- 26.45 in895.7 mb - 0.24 in6.1 mm 0.05 in1.3 mm
11:40 PM 54.0°F12.2°C 53.7°F12.1°C 99% Calm Calm -- 26.45 in895.7 mb - 0.23 in5.8 mm 0.05 in1.3 mm
11:45 PM 54.0°F12.2°C 53.7°F12.1°C 99% Calm Calm -- 26.46 in896.0 mb - 0.18 in4.6 mm 0.05 in1.3 mm
11:50 PM 54.0°F12.2°C 53.7°F12.1°C 99% Calm Calm -- 26.45 in895.7 mb - 0.05 in1.3 mm 0.05 in1.3 mm
11:55 PM 54.0°F12.2°C 53.7°F12.1°C 99% Calm Calm -- 26.45 in895.7 mb - 0.06 in1.5 mm 0.06 in1.5 mm